createdAt,value
2019-06-27T00:00:54.648Z,0.00
2019-06-27T00:01:54.629Z,0.00
2019-06-27T00:02:54.573Z,0.00
2019-06-27T00:03:54.585Z,0.00
2019-06-27T00:04:54.555Z,0.00
2019-06-27T00:05:54.553Z,0.00
2019-06-27T00:06:54.566Z,0.00
2019-06-27T00:07:54.532Z,0.00
2019-06-27T00:08:54.509Z,0.00
2019-06-27T00:09:54.539Z,0.00
2019-06-27T00:10:54.500Z,0.00
2019-06-27T00:11:54.523Z,0.00
2019-06-27T00:12:54.474Z,0.00
2019-06-27T00:13:54.469Z,0.00
2019-06-27T00:14:54.455Z,0.00
2019-06-27T00:15:54.438Z,0.00
2019-06-27T00:16:54.467Z,0.00
2019-06-27T00:17:54.475Z,0.00
2019-06-27T00:18:54.418Z,0.00
2019-06-27T00:19:54.410Z,0.00
2019-06-27T00:20:54.415Z,0.00
2019-06-27T00:21:54.416Z,0.00
2019-06-27T00:22:54.377Z,0.00
2019-06-27T00:23:54.357Z,0.00
2019-06-27T00:24:54.351Z,0.00
2019-06-27T00:25:54.331Z,0.00
2019-06-27T00:26:57.563Z,0.00
2019-06-27T00:27:54.317Z,0.00
2019-06-27T00:28:54.317Z,0.00
2019-06-27T00:29:54.324Z,0.00
2019-06-27T00:30:54.276Z,0.00
2019-06-27T00:31:54.311Z,0.00
2019-06-27T00:32:54.306Z,0.00
2019-06-27T00:33:54.285Z,0.00
2019-06-27T00:34:54.239Z,0.00
2019-06-27T00:35:54.244Z,0.00
2019-06-27T00:36:54.225Z,0.00
2019-06-27T00:37:54.203Z,0.00
2019-06-27T00:38:54.260Z,0.00
2019-06-27T00:39:54.194Z,0.00
2019-06-27T00:40:54.190Z,0.00
2019-06-27T00:41:54.172Z,0.00
2019-06-27T00:42:54.187Z,0.00
2019-06-27T00:43:54.198Z,0.00
2019-06-27T00:44:54.146Z,0.00
2019-06-27T00:45:54.132Z,0.00
2019-06-27T00:46:54.106Z,0.00
2019-06-27T00:47:54.111Z,0.00
2019-06-27T00:48:54.143Z,0.00
2019-06-27T00:49:54.084Z,0.00
2019-06-27T00:50:54.076Z,0.00
2019-06-27T00:51:54.062Z,0.00
2019-06-27T00:52:54.058Z,0.00
2019-06-27T00:53:54.082Z,0.00
2019-06-27T00:54:54.050Z,0.00
2019-06-27T00:55:54.014Z,0.00
2019-06-27T00:56:54.028Z,0.00
2019-06-27T00:57:54.004Z,0.00
2019-06-27T00:58:54.028Z,0.00
2019-06-27T00:59:54.036Z,0.00
2019-06-27T01:00:53.969Z,0.00
2019-06-27T01:01:53.959Z,0.00
2019-06-27T01:02:53.955Z,0.00
2019-06-27T01:03:53.975Z,0.00
2019-06-27T01:04:53.924Z,0.00
2019-06-27T01:05:53.924Z,0.00
2019-06-27T01:06:53.923Z,0.00
2019-06-27T01:07:53.887Z,0.00
2019-06-27T01:08:53.906Z,0.00
2019-06-27T01:09:53.912Z,0.00
2019-06-27T01:10:53.857Z,0.00
2019-06-27T01:11:53.869Z,0.00
2019-06-27T01:12:53.837Z,0.00
2019-06-27T01:13:53.825Z,0.00
2019-06-27T01:14:53.817Z,0.00
2019-06-27T01:15:53.831Z,0.00
2019-06-27T01:16:53.840Z,0.00
2019-06-27T01:17:53.790Z,0.00
2019-06-27T01:18:53.769Z,0.00
2019-06-27T01:19:53.788Z,0.00
2019-06-27T01:20:53.774Z,0.00
2019-06-27T01:21:53.766Z,0.00
2019-06-27T01:22:53.736Z,0.00
2019-06-27T01:23:53.720Z,0.00
2019-06-27T01:24:53.713Z,0.00
2019-06-27T01:25:53.735Z,0.00
2019-06-27T01:26:53.685Z,0.00
2019-06-27T01:27:53.709Z,0.00
2019-06-27T01:28:53.682Z,0.00
2019-06-27T01:29:53.668Z,0.00
2019-06-27T01:30:53.685Z,0.00
2019-06-27T01:31:53.635Z,0.00
2019-06-27T01:32:53.638Z,0.00
2019-06-27T01:33:53.620Z,0.00
2019-06-27T01:34:53.600Z,0.00
2019-06-27T01:35:53.586Z,0.00
2019-06-27T01:36:53.606Z,0.00
2019-06-27T01:37:53.573Z,0.00
2019-06-27T01:38:53.560Z,0.00
2019-06-27T01:39:53.548Z,0.00
2019-06-27T01:40:53.534Z,0.00
2019-06-27T01:41:53.567Z,0.00
2019-06-27T01:42:53.517Z,0.00
2019-06-27T01:43:53.500Z,0.00
2019-06-27T01:44:53.506Z,0.00
2019-06-27T01:45:53.484Z,0.00
2019-06-27T01:46:53.522Z,0.00
2019-06-27T01:47:53.478Z,0.00
2019-06-27T01:48:53.444Z,0.00
2019-06-27T01:49:53.439Z,0.00
2019-06-27T01:50:53.425Z,0.00
2019-06-27T01:51:53.442Z,0.00
2019-06-27T01:52:53.441Z,0.00
2019-06-27T01:53:53.402Z,0.00
2019-06-27T01:54:53.376Z,0.00
2019-06-27T01:55:53.406Z,0.00
2019-06-27T01:56:53.368Z,0.00
2019-06-27T01:57:53.396Z,0.00
2019-06-27T01:58:53.336Z,0.00
2019-06-27T01:59:53.338Z,0.00
2019-06-27T02:00:53.331Z,0.00
2019-06-27T02:01:53.296Z,0.00
2019-06-27T02:02:53.354Z,0.00
2019-06-27T02:03:53.306Z,0.00
2019-06-27T02:04:53.272Z,0.00
2019-06-27T02:05:53.255Z,0.00
2019-06-27T02:06:53.287Z,0.00
2019-06-27T02:07:53.280Z,0.00
2019-06-27T02:08:53.259Z,0.00
2019-06-27T02:09:53.235Z,0.00
2019-06-27T02:10:53.211Z,0.00
2019-06-27T02:11:53.200Z,0.00
2019-06-27T02:12:53.177Z,0.00
2019-06-27T02:13:53.205Z,0.00
2019-06-27T02:14:53.183Z,0.00
2019-06-27T02:15:53.163Z,0.00
2019-06-27T02:16:53.235Z,0.00
2019-06-27T02:17:53.179Z,0.00
2019-06-27T02:18:53.160Z,0.00
2019-06-27T02:19:53.106Z,0.00
2019-06-27T02:20:53.095Z,0.00
2019-06-27T02:21:53.098Z,0.00
2019-06-27T02:22:53.102Z,0.00
2019-06-27T02:23:53.062Z,0.00
2019-06-27T02:24:53.088Z,0.00
2019-06-27T02:25:53.045Z,0.00
2019-06-27T02:26:53.045Z,0.00
2019-06-27T02:28:03.200Z,0.00
2019-06-27T02:28:54.044Z,0.00
2019-06-27T02:29:53.004Z,0.00
2019-06-27T02:30:52.984Z,0.00
2019-06-27T02:31:53.001Z,0.00
2019-06-27T02:32:52.963Z,0.00
2019-06-27T02:33:53.014Z,0.00
2019-06-27T02:34:52.954Z,0.00
2019-06-27T02:35:52.968Z,0.00
2019-06-27T02:36:52.935Z,0.00
2019-06-27T02:37:52.914Z,0.00
2019-06-27T02:38:52.904Z,0.00
2019-06-27T02:39:52.915Z,0.00
2019-06-27T02:40:52.880Z,0.00
2019-06-27T02:41:52.883Z,0.00
2019-06-27T02:42:52.875Z,0.00
2019-06-27T02:43:52.896Z,0.00
2019-06-27T02:44:52.848Z,0.00
2019-06-27T02:45:52.829Z,0.00
2019-06-27T02:46:52.810Z,0.00
2019-06-27T02:47:52.799Z,0.00
2019-06-27T02:48:52.833Z,0.00
2019-06-27T02:49:52.799Z,0.00
2019-06-27T02:50:52.770Z,0.00
2019-06-27T02:51:52.807Z,0.00
2019-06-27T02:52:52.753Z,0.00
2019-06-27T02:53:52.747Z,0.00
2019-06-27T02:54:52.729Z,0.00
2019-06-27T02:55:52.746Z,0.00
2019-06-27T02:56:52.706Z,0.00
2019-06-27T02:57:52.696Z,0.00
2019-06-27T02:58:52.690Z,0.00
2019-06-27T02:59:52.710Z,0.00
2019-06-27T03:00:52.674Z,0.00
2019-06-27T03:01:52.654Z,0.00
2019-06-27T03:02:52.658Z,0.00
2019-06-27T03:03:52.635Z,0.00
2019-06-27T03:04:52.656Z,0.00
2019-06-27T03:05:52.648Z,0.00
2019-06-27T03:06:52.602Z,0.00
2019-06-27T03:07:52.582Z,0.00
2019-06-27T03:08:52.581Z,0.00
2019-06-27T03:09:52.617Z,0.00
2019-06-27T03:10:52.563Z,0.00
2019-06-27T03:11:52.608Z,0.00
2019-06-27T03:12:52.591Z,0.00
2019-06-27T03:13:52.521Z,0.00
2019-06-27T03:14:52.516Z,0.00
2019-06-27T03:15:52.539Z,0.00
2019-06-27T03:16:52.493Z,0.00
2019-06-27T03:17:52.483Z,0.00
2019-06-27T03:18:52.609Z,0.00
2019-06-27T03:19:52.478Z,5.62
2019-06-27T03:20:52.444Z,5.62
2019-06-27T03:21:52.450Z,5.62
2019-06-27T03:22:52.422Z,5.62
2019-06-27T03:23:52.466Z,5.62
2019-06-27T03:24:52.411Z,5.62
2019-06-27T03:25:52.396Z,5.62
2019-06-27T03:26:52.427Z,5.62
2019-06-27T03:27:52.378Z,5.62
2019-06-27T03:28:54.064Z,5.62
2019-06-27T03:29:52.347Z,5.62
2019-06-27T03:30:52.360Z,11.25
2019-06-27T03:31:52.401Z,11.25
2019-06-27T03:32:52.411Z,11.25
2019-06-27T03:33:52.306Z,11.25
2019-06-27T03:34:52.318Z,11.25
2019-06-27T03:35:52.303Z,11.25
2019-06-27T03:36:52.285Z,11.25
2019-06-27T03:37:52.312Z,11.25
2019-06-27T03:38:52.289Z,16.88
2019-06-27T03:39:52.272Z,16.88
2019-06-27T03:40:52.233Z,16.88
2019-06-27T03:41:52.242Z,16.88
2019-06-27T03:42:52.276Z,16.88
2019-06-27T03:43:52.210Z,16.88
2019-06-27T03:44:52.182Z,16.88
2019-06-27T03:45:52.197Z,22.50
2019-06-27T03:46:52.164Z,22.50
2019-06-27T03:47:52.184Z,22.50
2019-06-27T03:48:52.184Z,22.50
2019-06-27T03:49:52.136Z,22.50
2019-06-27T03:50:55.810Z,22.50
2019-06-27T03:51:52.114Z,22.50
2019-06-27T03:52:52.142Z,22.50
2019-06-27T03:53:52.093Z,28.12
2019-06-27T03:54:52.078Z,28.12
2019-06-27T03:55:52.070Z,28.12
2019-06-27T03:56:52.062Z,28.12
2019-06-27T03:57:52.086Z,28.12
2019-06-27T03:59:10.625Z,33.75
2019-06-27T03:59:53.044Z,33.75
2019-06-27T04:00:52.020Z,33.75
2019-06-27T04:01:52.021Z,33.75
2019-06-27T04:02:52.000Z,33.75
2019-06-27T04:03:52.021Z,33.75
2019-06-27T04:04:52.004Z,39.38
2019-06-27T04:05:51.980Z,39.38
2019-06-27T04:06:51.966Z,39.38
2019-06-27T04:07:51.934Z,39.38
2019-06-27T04:08:51.950Z,45.00
2019-06-27T04:09:51.940Z,45.00
2019-06-27T04:10:51.914Z,45.00
2019-06-27T04:11:51.919Z,45.00
2019-06-27T04:12:51.892Z,45.00
2019-06-27T04:13:51.933Z,45.00
2019-06-27T04:14:51.868Z,50.62
2019-06-27T04:15:51.850Z,50.62
2019-06-27T04:16:51.857Z,50.62
2019-06-27T04:17:51.886Z,50.62
2019-06-27T04:18:51.814Z,56.25
2019-06-27T04:19:51.833Z,56.25
2019-06-27T04:20:51.840Z,56.25
2019-06-27T04:21:51.786Z,56.25
2019-06-27T04:22:51.836Z,56.25
2019-06-27T04:23:51.776Z,61.88
2019-06-27T04:24:51.767Z,61.88
2019-06-27T04:25:51.749Z,61.88
2019-06-27T04:26:51.734Z,67.50
2019-06-27T04:27:51.767Z,67.50
2019-06-27T04:28:51.715Z,67.50
2019-06-27T04:29:51.707Z,73.12
2019-06-27T04:30:51.710Z,73.12
2019-06-27T04:31:51.685Z,73.12
2019-06-27T04:32:51.718Z,78.75
2019-06-27T04:33:51.670Z,78.75
2019-06-27T04:34:51.673Z,78.75
2019-06-27T04:35:51.642Z,73.12
2019-06-27T04:36:51.649Z,78.75
2019-06-27T04:37:51.611Z,78.75
2019-06-27T04:38:51.720Z,78.75
2019-06-27T04:39:51.595Z,78.75
2019-06-27T04:40:51.578Z,84.38
2019-06-27T04:41:51.569Z,84.38
2019-06-27T04:42:51.572Z,84.38
2019-06-27T04:43:51.600Z,90.00
2019-06-27T04:44:51.672Z,90.00
2019-06-27T04:45:51.581Z,90.00
2019-06-27T04:46:51.516Z,90.00
2019-06-27T04:47:51.524Z,90.00
2019-06-27T04:48:51.508Z,90.00
2019-06-27T04:49:51.624Z,95.62
2019-06-27T04:50:51.483Z,95.62
2019-06-27T04:51:51.474Z,95.62
2019-06-27T04:52:51.448Z,95.62
2019-06-27T04:53:51.442Z,95.62
2019-06-27T04:54:51.435Z,101.25
2019-06-27T04:55:51.449Z,95.62
2019-06-27T04:56:51.426Z,101.25
2019-06-27T04:57:51.426Z,95.62
2019-06-27T04:58:51.396Z,101.25
2019-06-27T04:59:53.765Z,101.25
2019-06-27T05:00:51.480Z,101.25
2019-06-27T05:01:51.359Z,106.88
2019-06-27T05:02:51.348Z,106.88
2019-06-27T05:03:51.518Z,106.88
2019-06-27T05:04:51.317Z,112.50
2019-06-27T05:05:51.337Z,112.50
2019-06-27T05:06:51.323Z,112.50
2019-06-27T05:07:51.347Z,118.12
2019-06-27T05:08:51.305Z,112.50
2019-06-27T05:09:51.265Z,112.50
2019-06-27T05:10:51.300Z,118.12
2019-06-27T05:11:51.250Z,118.12
2019-06-27T05:12:51.236Z,123.75
2019-06-27T05:13:51.241Z,118.12
2019-06-27T05:14:51.205Z,123.75
2019-06-27T05:15:51.294Z,123.75
2019-06-27T05:16:51.186Z,123.75
2019-06-27T05:17:51.189Z,129.38
2019-06-27T05:18:51.190Z,129.38
2019-06-27T05:19:51.155Z,135.00
2019-06-27T05:20:51.148Z,135.00
2019-06-27T05:21:51.163Z,129.38
2019-06-27T05:22:51.120Z,129.38
2019-06-27T05:23:51.118Z,129.38
2019-06-27T05:24:51.107Z,135.00
2019-06-27T05:25:51.087Z,135.00
2019-06-27T05:26:51.133Z,135.00
2019-06-27T05:27:51.076Z,135.00
2019-06-27T05:28:51.080Z,135.00
2019-06-27T05:29:51.061Z,135.00
2019-06-27T05:30:51.726Z,140.62
2019-06-27T05:31:51.073Z,140.62
2019-06-27T05:32:51.031Z,140.62
2019-06-27T05:33:51.013Z,146.25
2019-06-27T05:34:51.006Z,146.25
2019-06-27T05:35:51.000Z,151.88
2019-06-27T05:36:50.986Z,151.88
2019-06-27T05:37:51.087Z,151.88
2019-06-27T05:38:50.950Z,151.88
2019-06-27T05:39:50.949Z,151.88
2019-06-27T05:40:50.960Z,157.50
2019-06-27T05:41:50.916Z,157.50
2019-06-27T05:42:50.907Z,157.50
2019-06-27T05:43:50.936Z,163.12
2019-06-27T05:44:50.940Z,163.12
2019-06-27T05:45:50.952Z,168.75
2019-06-27T05:46:50.872Z,174.38
2019-06-27T05:47:50.854Z,180.00
2019-06-27T05:48:50.870Z,180.00
2019-06-27T05:49:50.859Z,230.62
2019-06-27T05:50:50.853Z,241.88
2019-06-27T05:51:50.814Z,472.50
2019-06-27T05:52:50.810Z,427.50
2019-06-27T05:53:50.787Z,230.62
2019-06-27T05:54:50.814Z,185.62
2019-06-27T05:55:50.762Z,180.00
2019-06-27T05:56:50.757Z,163.12
2019-06-27T05:57:50.834Z,174.38
2019-06-27T05:58:52.056Z,174.38
2019-06-27T05:59:50.724Z,185.62
2019-06-27T06:00:50.763Z,191.25
2019-06-27T06:01:50.725Z,185.62
2019-06-27T06:02:50.735Z,180.00
2019-06-27T06:03:50.709Z,180.00
2019-06-27T06:04:50.689Z,185.62
2019-06-27T06:05:50.710Z,180.00
2019-06-27T06:06:50.678Z,180.00
2019-06-27T06:07:50.634Z,196.88
2019-06-27T06:08:50.637Z,180.00
2019-06-27T06:09:50.626Z,180.00
2019-06-27T06:10:50.667Z,185.62
2019-06-27T06:11:50.670Z,185.62
2019-06-27T06:12:50.577Z,191.25
2019-06-27T06:13:50.616Z,196.88
2019-06-27T06:14:50.606Z,202.50
2019-06-27T06:15:50.672Z,202.50
2019-06-27T06:16:50.545Z,202.50
2019-06-27T06:17:50.543Z,208.12
2019-06-27T06:18:50.524Z,219.38
2019-06-27T06:19:50.639Z,219.38
2019-06-27T06:20:50.522Z,219.38
2019-06-27T06:21:50.525Z,219.38
2019-06-27T06:22:50.484Z,219.38
2019-06-27T06:23:50.490Z,225.00
2019-06-27T06:24:50.515Z,219.38
2019-06-27T06:25:50.447Z,219.38
2019-06-27T06:26:50.464Z,219.38
2019-06-27T06:27:50.476Z,225.00
2019-06-27T06:28:50.416Z,219.38
2019-06-27T06:29:50.447Z,213.75
2019-06-27T06:30:50.390Z,219.38
2019-06-27T06:31:50.409Z,213.75
2019-06-27T06:32:50.458Z,213.75
2019-06-27T06:33:50.350Z,219.38
2019-06-27T06:34:50.340Z,213.75
2019-06-27T06:35:50.329Z,213.75
2019-06-27T06:36:50.325Z,213.75
2019-06-27T06:37:50.387Z,213.75
2019-06-27T06:38:50.310Z,213.75
2019-06-27T06:39:50.315Z,219.38
2019-06-27T06:40:50.277Z,219.38
2019-06-27T06:41:50.263Z,225.00
2019-06-27T06:42:50.350Z,236.25
2019-06-27T06:43:50.257Z,275.62
2019-06-27T06:44:50.389Z,225.00
2019-06-27T06:45:50.261Z,427.50
2019-06-27T06:46:50.220Z,382.50
2019-06-27T06:47:50.236Z,236.25
2019-06-27T06:48:50.187Z,258.75
2019-06-27T06:49:50.178Z,382.50
2019-06-27T06:50:50.205Z,264.38
2019-06-27T06:51:50.196Z,258.75
2019-06-27T06:52:50.154Z,253.12
2019-06-27T06:53:50.163Z,264.38
2019-06-27T06:54:50.119Z,438.75
2019-06-27T06:55:50.122Z,331.88
2019-06-27T06:56:50.123Z,337.50
2019-06-27T06:57:50.129Z,241.88
2019-06-27T06:58:50.119Z,241.88
2019-06-27T06:59:50.071Z,247.50
2019-06-27T07:01:00.776Z,253.12
2019-06-27T07:01:51.088Z,410.62
2019-06-27T07:02:50.062Z,427.50
2019-06-27T07:03:50.146Z,264.38
2019-06-27T07:04:50.019Z,286.88
2019-06-27T07:05:50.065Z,348.75
2019-06-27T07:06:50.058Z,281.25
2019-06-27T07:07:50.055Z,253.12
2019-06-27T07:08:50.010Z,258.75
2019-06-27T07:09:50.049Z,258.75
2019-06-27T07:10:49.962Z,360.00
2019-06-27T07:11:49.946Z,888.75
2019-06-27T07:12:49.949Z,528.75
2019-06-27T07:13:49.917Z,315.00
2019-06-27T07:14:49.944Z,275.62
2019-06-27T07:15:49.908Z,410.62
2019-06-27T07:16:49.908Z,275.62
2019-06-27T07:17:49.909Z,281.25
2019-06-27T07:18:49.881Z,292.50
2019-06-27T07:19:49.915Z,343.12
2019-06-27T07:20:49.855Z,911.25
2019-06-27T07:21:49.843Z,1726.88
2019-06-27T07:22:49.828Z,815.62
2019-06-27T07:23:49.828Z,2075.62
2019-06-27T07:24:49.860Z,1659.38
2019-06-27T07:25:49.809Z,618.75
2019-06-27T07:26:49.844Z,720.00
2019-06-27T07:27:49.774Z,253.12
2019-06-27T07:28:49.830Z,303.75
2019-06-27T07:29:49.807Z,303.75
2019-06-27T07:30:49.735Z,309.38
2019-06-27T07:31:49.735Z,1738.12
2019-06-27T07:32:49.736Z,2323.12
2019-06-27T07:33:49.704Z,2210.62
2019-06-27T07:34:49.738Z,2368.12
2019-06-27T07:35:49.694Z,2340.00
2019-06-27T07:36:49.680Z,2221.88
2019-06-27T07:37:49.707Z,2266.88
2019-06-27T07:38:49.649Z,2368.12
2019-06-27T07:39:49.653Z,2401.88
2019-06-27T07:40:49.713Z,2407.50
2019-06-27T07:41:49.635Z,2362.50
2019-06-27T07:42:49.617Z,2401.88
2019-06-27T07:43:49.641Z,2418.75
2019-06-27T07:44:49.746Z,2463.75
2019-06-27T07:45:49.587Z,2238.75
2019-06-27T07:46:49.619Z,1777.50
2019-06-27T07:47:49.569Z,1569.38
2019-06-27T07:48:49.566Z,1001.25
2019-06-27T07:49:49.568Z,416.25
2019-06-27T07:50:49.593Z,393.75
2019-06-27T07:51:49.606Z,1096.88
2019-06-27T07:52:49.502Z,354.38
2019-06-27T07:53:49.540Z,523.12
2019-06-27T07:54:49.493Z,348.75
2019-06-27T07:55:49.489Z,360.00
2019-06-27T07:56:49.526Z,410.62
2019-06-27T07:57:49.454Z,596.25
2019-06-27T07:58:49.442Z,2536.88
2019-06-27T07:59:49.522Z,596.25
2019-06-27T08:00:49.439Z,556.88
2019-06-27T08:01:49.474Z,478.12
2019-06-27T08:02:49.403Z,489.38
2019-06-27T08:03:49.460Z,2756.25
2019-06-27T08:04:49.385Z,326.25
2019-06-27T08:05:49.389Z,343.12
2019-06-27T08:06:49.440Z,360.00
2019-06-27T08:07:49.383Z,331.88
2019-06-27T08:08:49.385Z,320.62
2019-06-27T08:09:49.338Z,399.38
2019-06-27T08:10:49.325Z,1001.25
2019-06-27T08:11:49.342Z,2913.75
2019-06-27T08:12:49.303Z,1805.62
2019-06-27T08:13:49.368Z,2930.62
2019-06-27T08:14:49.279Z,984.38
2019-06-27T08:15:49.320Z,579.38
2019-06-27T08:16:49.290Z,545.62
2019-06-27T08:17:49.242Z,365.62
2019-06-27T08:18:49.259Z,371.25
2019-06-27T08:19:49.244Z,371.25
2019-06-27T08:20:49.223Z,720.00
2019-06-27T08:21:49.274Z,2058.75
2019-06-27T08:22:49.269Z,2559.38
2019-06-27T08:23:49.403Z,2514.38
2019-06-27T08:24:49.179Z,2694.38
2019-06-27T08:25:49.195Z,2829.38
2019-06-27T08:26:49.194Z,2705.62
2019-06-27T08:27:49.161Z,2745.00
2019-06-27T08:28:49.164Z,2750.62
2019-06-27T08:29:49.117Z,2536.88
2019-06-27T08:30:49.117Z,2548.12
2019-06-27T08:31:51.784Z,2739.38
2019-06-27T08:32:49.137Z,2773.12
2019-06-27T08:33:56.104Z,2626.88
2019-06-27T08:34:49.071Z,2638.12
2019-06-27T08:35:49.059Z,2756.25
2019-06-27T08:36:49.063Z,2812.50
2019-06-27T08:37:49.156Z,2739.38
2019-06-27T08:38:49.124Z,2874.38
2019-06-27T08:39:49.017Z,2930.62
2019-06-27T08:40:49.013Z,2896.88
2019-06-27T08:41:48.999Z,2964.38
2019-06-27T08:42:48.986Z,3009.38
2019-06-27T08:43:49.033Z,3088.12
2019-06-27T08:44:49.010Z,3015.00
2019-06-27T08:45:48.970Z,2750.62
2019-06-27T08:46:48.950Z,2570.62
2019-06-27T08:47:48.983Z,2126.25
2019-06-27T08:48:48.948Z,2773.12
2019-06-27T08:49:48.917Z,2975.62
2019-06-27T08:50:49.014Z,2840.62
2019-06-27T08:51:48.913Z,2587.50
2019-06-27T08:52:48.908Z,2806.88
2019-06-27T08:53:48.920Z,2486.25
2019-06-27T08:54:48.876Z,3155.62
2019-06-27T08:55:48.864Z,748.12
2019-06-27T08:56:48.875Z,410.62
2019-06-27T08:57:48.844Z,2795.62
2019-06-27T08:58:48.905Z,1485.00
2019-06-27T08:59:48.833Z,2936.25
2019-06-27T09:00:48.811Z,2835.00
2019-06-27T09:01:48.805Z,2936.25
2019-06-27T09:02:48.801Z,2576.25
2019-06-27T09:03:48.821Z,2148.75
2019-06-27T09:04:48.811Z,950.62
2019-06-27T09:05:48.783Z,2660.62
2019-06-27T09:06:48.784Z,427.50
2019-06-27T09:07:48.766Z,433.12
2019-06-27T09:08:48.778Z,2407.50
2019-06-27T09:09:48.722Z,3043.12
2019-06-27T09:10:48.770Z,2711.25
2019-06-27T09:11:48.716Z,2981.25
2019-06-27T09:12:48.705Z,2700.00
2019-06-27T09:13:48.697Z,3330.00
2019-06-27T09:14:48.689Z,3380.62
2019-06-27T09:15:48.844Z,3296.25
2019-06-27T09:16:48.658Z,3431.25
2019-06-27T09:17:48.742Z,3600.00
2019-06-27T09:18:48.641Z,3532.50
2019-06-27T09:19:48.632Z,3121.88
2019-06-27T09:20:48.699Z,2975.62
2019-06-27T09:21:48.645Z,3279.38
2019-06-27T09:22:48.623Z,3521.25
2019-06-27T09:23:48.593Z,3526.88
2019-06-27T09:24:48.634Z,3532.50
2019-06-27T09:25:48.583Z,3487.50
2019-06-27T09:26:48.606Z,3560.62
2019-06-27T09:27:48.580Z,3543.75
2019-06-27T09:28:48.561Z,3414.38
2019-06-27T09:29:48.690Z,3487.50
2019-06-27T09:30:48.534Z,3560.62
2019-06-27T09:31:48.572Z,3701.25
2019-06-27T09:32:48.556Z,3594.38
2019-06-27T09:33:48.508Z,3481.88
2019-06-27T09:34:48.593Z,3622.50
2019-06-27T09:35:48.478Z,3763.12
2019-06-27T09:36:48.479Z,3695.62
2019-06-27T09:37:48.477Z,3633.75
2019-06-27T09:38:48.558Z,3600.00
2019-06-27T09:39:48.462Z,3701.25
2019-06-27T09:40:48.459Z,3701.25
2019-06-27T09:41:48.432Z,3543.75
2019-06-27T09:42:48.480Z,3566.25
2019-06-27T09:43:48.441Z,3763.12
2019-06-27T09:44:48.416Z,3695.62
2019-06-27T09:45:48.397Z,3616.88
2019-06-27T09:46:48.436Z,3768.75
2019-06-27T09:47:48.391Z,3645.00
2019-06-27T09:48:48.425Z,3420.00
2019-06-27T09:49:48.355Z,3532.50
2019-06-27T09:50:48.349Z,3718.12
2019-06-27T09:51:48.391Z,3566.25
2019-06-27T09:52:48.325Z,3442.50
2019-06-27T09:53:48.420Z,3526.88
2019-06-27T09:54:48.311Z,3538.12
2019-06-27T09:55:48.306Z,3538.12
2019-06-27T09:56:48.298Z,3583.12
2019-06-27T09:57:48.363Z,3712.50
2019-06-27T09:58:48.305Z,3723.75
2019-06-27T09:59:48.412Z,3791.25
2019-06-27T10:00:48.306Z,3858.75
2019-06-27T10:01:48.248Z,3802.50
2019-06-27T10:02:48.246Z,3802.50
2019-06-27T10:03:48.263Z,3701.25
2019-06-27T10:04:48.219Z,3538.12
2019-06-27T10:05:48.297Z,3560.62
2019-06-27T10:06:48.202Z,3763.12
2019-06-27T10:07:48.191Z,3954.38
2019-06-27T10:08:48.207Z,3785.62
2019-06-27T10:09:48.226Z,3526.88
2019-06-27T10:10:48.197Z,3515.62
2019-06-27T10:11:48.162Z,3515.62
2019-06-27T10:12:48.172Z,3600.00
2019-06-27T10:13:48.187Z,3054.38
2019-06-27T10:14:48.190Z,3363.75
2019-06-27T10:15:48.131Z,3808.12
2019-06-27T10:16:48.129Z,3729.38
2019-06-27T10:17:48.165Z,3678.75
2019-06-27T10:18:48.105Z,3690.00
2019-06-27T10:19:48.232Z,3746.25
2019-06-27T10:20:48.195Z,3465.00
2019-06-27T10:21:48.149Z,3363.75
2019-06-27T10:22:48.062Z,3538.12
2019-06-27T10:23:48.106Z,3628.12
2019-06-27T10:24:48.067Z,3684.38
2019-06-27T10:25:48.082Z,3701.25
2019-06-27T10:26:48.064Z,3645.00
2019-06-27T10:27:48.046Z,3600.00
2019-06-27T10:28:48.011Z,3774.38
2019-06-27T10:29:48.017Z,3858.75
2019-06-27T10:30:49.323Z,3785.62
2019-06-27T10:31:48.005Z,3487.50
2019-06-27T10:32:58.484Z,3341.25
2019-06-27T10:33:49.019Z,3684.38
2019-06-27T10:34:47.994Z,3881.25
2019-06-27T10:35:48.021Z,3920.62
2019-06-27T10:36:47.968Z,3836.25
2019-06-27T10:37:47.940Z,3768.75
2019-06-27T10:38:47.925Z,3723.75
2019-06-27T10:39:47.951Z,3594.38
2019-06-27T10:40:47.945Z,3498.75
2019-06-27T10:41:47.968Z,3611.25
2019-06-27T10:42:47.901Z,3695.62
2019-06-27T10:43:47.895Z,3796.88
2019-06-27T10:44:47.883Z,3853.12
2019-06-27T10:45:47.920Z,3864.38
2019-06-27T10:46:47.893Z,3785.62
2019-06-27T10:47:47.888Z,3487.50
2019-06-27T10:48:47.898Z,3200.62
2019-06-27T10:49:47.848Z,3453.75
2019-06-27T10:50:47.861Z,3965.62
2019-06-27T10:51:47.926Z,4050.00
2019-06-27T10:52:47.821Z,3830.62
2019-06-27T10:53:47.833Z,3375.00
2019-06-27T10:54:47.832Z,3020.62
2019-06-27T10:55:47.790Z,2795.62
2019-06-27T10:56:47.789Z,2874.38
2019-06-27T10:57:47.808Z,3346.88
2019-06-27T10:58:47.820Z,3600.00
2019-06-27T10:59:47.766Z,3723.75
2019-06-27T11:00:47.789Z,3785.62
2019-06-27T11:01:47.791Z,3678.75
2019-06-27T11:02:47.803Z,3622.50
2019-06-27T11:03:47.808Z,3616.88
2019-06-27T11:04:47.716Z,3701.25
2019-06-27T11:05:47.710Z,3763.12
2019-06-27T11:06:47.744Z,3825.00
2019-06-27T11:07:47.725Z,3785.62
2019-06-27T11:08:47.740Z,3982.50
2019-06-27T11:09:50.233Z,3414.38
2019-06-27T11:10:47.668Z,3594.38
2019-06-27T11:11:47.714Z,3076.88
2019-06-27T11:12:47.652Z,3105.00
2019-06-27T11:13:58.345Z,3228.75
2019-06-27T11:14:58.751Z,2930.62
2019-06-27T11:15:49.454Z,3774.38
2019-06-27T11:16:47.635Z,3183.75
2019-06-27T11:17:47.636Z,360.00
2019-06-27T11:18:47.641Z,3695.62
2019-06-27T11:19:52.376Z,2823.75
2019-06-27T11:20:48.580Z,3521.25
2019-06-27T11:21:47.614Z,4860.00
2019-06-27T11:22:47.609Z,3459.38
2019-06-27T11:23:47.557Z,3453.75
2019-06-27T11:24:47.593Z,4978.12
2019-06-27T11:25:47.550Z,3915.00
2019-06-27T11:26:47.684Z,2863.12
2019-06-27T11:27:47.574Z,4269.38
2019-06-27T11:28:47.586Z,4500.00
2019-06-27T11:29:47.554Z,2992.50
2019-06-27T11:30:47.550Z,3577.50
2019-06-27T11:31:47.496Z,5298.75
2019-06-27T11:32:47.494Z,4269.38
2019-06-27T11:33:47.534Z,2835.00
2019-06-27T11:34:47.498Z,3729.38
2019-06-27T11:35:47.508Z,4370.62
2019-06-27T11:36:47.452Z,3262.50
2019-06-27T11:37:47.471Z,2846.25
2019-06-27T11:38:47.480Z,4106.25
2019-06-27T11:39:47.424Z,4308.75
2019-06-27T11:40:47.423Z,3071.25
2019-06-27T11:41:47.447Z,3375.00
2019-06-27T11:42:47.413Z,4134.38
2019-06-27T11:43:47.436Z,1659.38
2019-06-27T11:44:47.383Z,2711.25
2019-06-27T11:45:47.380Z,810.00
2019-06-27T11:46:47.401Z,466.88
2019-06-27T11:47:47.420Z,1569.38
2019-06-27T11:48:47.440Z,298.12
2019-06-27T11:49:47.400Z,506.25
2019-06-27T11:50:47.333Z,573.75
2019-06-27T11:51:47.329Z,281.25
2019-06-27T11:52:47.737Z,523.12
2019-06-27T11:53:47.311Z,225.00
2019-06-27T11:54:47.338Z,208.12
2019-06-27T11:55:47.287Z,196.88
2019-06-27T11:56:47.355Z,202.50
2019-06-27T11:57:47.266Z,202.50
2019-06-27T11:58:47.261Z,202.50
2019-06-27T11:59:47.242Z,202.50
2019-06-27T12:00:47.323Z,208.12
2019-06-27T12:01:47.284Z,213.75
2019-06-27T12:02:47.247Z,371.25
2019-06-27T12:03:49.840Z,461.25
2019-06-27T12:04:47.237Z,281.25
2019-06-27T12:05:47.205Z,2475.00
2019-06-27T12:06:47.191Z,1091.25
2019-06-27T12:07:47.161Z,191.25
2019-06-27T12:08:47.176Z,804.38
2019-06-27T12:09:47.246Z,1738.12
2019-06-27T12:10:47.166Z,933.75
2019-06-27T12:11:47.129Z,1743.75
2019-06-27T12:12:47.156Z,2542.50
2019-06-27T12:13:47.141Z,371.25
2019-06-27T12:14:47.100Z,202.50
2019-06-27T12:15:47.151Z,517.50
2019-06-27T12:16:47.103Z,3757.50
2019-06-27T12:17:47.185Z,1125.00
2019-06-27T12:18:47.103Z,2351.25
2019-06-27T12:19:47.084Z,337.50
2019-06-27T12:20:47.098Z,191.25
2019-06-27T12:21:47.020Z,202.50
2019-06-27T12:22:47.005Z,185.62
2019-06-27T12:23:47.006Z,185.62
2019-06-27T12:24:47.059Z,191.25
2019-06-27T12:25:47.068Z,180.00
2019-06-27T12:26:46.969Z,168.75
2019-06-27T12:27:46.984Z,174.38
2019-06-27T12:28:46.942Z,174.38
2019-06-27T12:29:46.951Z,174.38
2019-06-27T12:30:46.941Z,168.75
2019-06-27T12:31:46.913Z,298.12
2019-06-27T12:32:52.290Z,253.12
2019-06-27T12:33:47.919Z,168.75
2019-06-27T12:34:46.885Z,191.25
2019-06-27T12:35:46.879Z,855.00
2019-06-27T12:36:46.862Z,1198.12